createdAt,value
2022-10-05T00:00:21.710Z,10.80
2022-10-05T00:02:51.550Z,10.76
2022-10-05T00:05:35.815Z,10.70
2022-10-05T00:08:18.754Z,10.70
2022-10-05T00:10:46.229Z,10.70
2022-10-05T00:13:25.280Z,10.64
2022-10-05T00:15:59.288Z,10.60
2022-10-05T00:18:26.369Z,10.60
2022-10-05T00:20:52.383Z,10.60
2022-10-05T00:23:22.572Z,10.52
2022-10-05T00:25:48.709Z,10.50
2022-10-05T00:28:26.273Z,10.50
2022-10-05T00:30:56.553Z,10.48
2022-10-05T00:33:22.608Z,10.40
2022-10-05T00:35:48.816Z,10.40
2022-10-05T00:38:14.819Z,10.40
2022-10-05T00:41:00.299Z,10.30
2022-10-05T00:44:04.244Z,10.30
2022-10-05T00:47:11.283Z,10.30
2022-10-05T00:50:06.816Z,10.20
2022-10-05T00:52:44.608Z,10.20
2022-10-05T00:55:16.286Z,10.20
2022-10-05T00:58:21.517Z,10.10
2022-10-05T01:01:27.522Z,10.10
2022-10-05T01:03:59.771Z,10.10
2022-10-05T01:06:59.848Z,10.10
2022-10-05T01:09:53.020Z,10.08
2022-10-05T01:12:39.581Z,10.04
2022-10-05T01:15:27.219Z,10.00
2022-10-05T01:18:02.120Z,10.00
2022-10-05T01:20:49.350Z,10.00
2022-10-05T01:23:48.356Z,9.96
2022-10-05T01:26:44.721Z,9.90
2022-10-05T01:29:23.089Z,9.90
2022-10-05T01:32:07.138Z,9.90
2022-10-05T01:35:02.853Z,9.90
2022-10-05T01:37:50.562Z,9.82
2022-10-05T01:40:44.253Z,9.80
2022-10-05T01:44:01.189Z,9.80
2022-10-05T01:46:38.430Z,9.80
2022-10-05T01:49:36.573Z,9.80
2022-10-05T01:52:43.600Z,9.80
2022-10-05T01:55:44.763Z,9.80
2022-10-05T01:58:52.715Z,9.80
2022-10-05T02:01:21.622Z,9.80
2022-10-05T02:04:03.913Z,9.80
2022-10-05T02:06:41.117Z,9.80
2022-10-05T02:09:19.602Z,9.80
2022-10-05T02:11:57.115Z,9.80
2022-10-05T02:14:35.487Z,9.78
2022-10-05T02:17:10.714Z,9.80
2022-10-05T02:19:42.043Z,9.80
2022-10-05T02:22:24.357Z,9.80
2022-10-05T02:24:58.008Z,9.80
2022-10-05T02:27:37.939Z,9.80
2022-10-05T02:30:10.425Z,9.80
2022-10-05T02:32:55.348Z,9.80
2022-10-05T02:35:22.440Z,9.80
2022-10-05T02:38:07.400Z,9.80
2022-10-05T02:41:00.879Z,9.80
2022-10-05T02:43:53.949Z,9.80
2022-10-05T02:46:24.938Z,9.80
2022-10-05T02:49:09.880Z,9.80
2022-10-05T02:52:02.336Z,9.80
2022-10-05T02:54:57.883Z,9.80
2022-10-05T02:57:39.983Z,9.80
2022-10-05T03:00:16.740Z,9.80
2022-10-05T03:02:57.583Z,9.80
2022-10-05T03:05:41.187Z,9.72
2022-10-05T03:08:26.416Z,9.70
2022-10-05T03:11:25.280Z,9.70
2022-10-05T03:14:08.096Z,9.70
2022-10-05T03:16:47.338Z,9.70
2022-10-05T03:19:28.584Z,9.70
2022-10-05T03:22:09.836Z,9.70
2022-10-05T03:25:10.961Z,9.70
2022-10-05T03:28:08.247Z,9.70
2022-10-05T03:30:53.274Z,9.60
2022-10-05T03:33:35.714Z,9.60
2022-10-05T03:36:30.898Z,9.60
2022-10-05T03:39:46.935Z,9.60
2022-10-05T03:43:01.256Z,9.60
2022-10-05T03:45:35.177Z,9.60
2022-10-05T03:48:05.580Z,9.60
2022-10-05T03:50:44.276Z,9.60
2022-10-05T03:53:23.580Z,9.60
2022-10-05T03:56:13.838Z,9.60
2022-10-05T03:59:12.630Z,9.60
2022-10-05T04:01:50.109Z,9.60
2022-10-05T04:04:25.143Z,9.60
2022-10-05T04:06:54.554Z,9.60
2022-10-05T04:09:27.942Z,9.60
2022-10-05T04:12:11.581Z,9.60
2022-10-05T04:14:45.570Z,9.60
2022-10-05T04:17:17.974Z,9.60
2022-10-05T04:20:00.174Z,9.60
2022-10-05T04:22:35.645Z,9.60
2022-10-05T04:25:18.131Z,9.60
2022-10-05T04:28:43.775Z,9.60
2022-10-05T04:31:48.080Z,9.60
2022-10-05T04:34:53.690Z,9.60
2022-10-05T04:38:15.113Z,9.60
2022-10-05T04:40:41.180Z,9.60
2022-10-05T04:43:22.682Z,9.60
2022-10-05T04:46:16.995Z,9.60
2022-10-05T04:48:58.516Z,9.60
2022-10-05T04:51:54.026Z,9.68
2022-10-05T04:54:41.655Z,9.70
2022-10-05T04:57:39.747Z,9.70
2022-10-05T05:00:21.735Z,9.70
2022-10-05T05:03:26.269Z,9.70
2022-10-05T05:06:37.598Z,9.70
2022-10-05T05:09:56.154Z,9.70
2022-10-05T05:12:43.478Z,9.70
2022-10-05T05:15:46.647Z,9.70
2022-10-05T05:18:41.100Z,9.80
2022-10-05T05:21:32.411Z,9.80
2022-10-05T05:24:27.498Z,9.80
2022-10-05T05:27:20.592Z,9.88
2022-10-05T05:30:14.363Z,9.90
2022-10-05T05:33:01.793Z,9.90
2022-10-05T05:35:50.983Z,9.90
2022-10-05T05:38:22.843Z,9.94
2022-10-05T05:41:19.792Z,10.00
2022-10-05T05:44:22.537Z,10.00
2022-10-05T05:47:13.881Z,10.00
2022-10-05T05:50:23.752Z,10.00
2022-10-05T05:53:00.541Z,10.10
2022-10-05T05:55:34.033Z,10.10
2022-10-05T05:58:16.618Z,10.18
2022-10-05T06:00:50.447Z,10.20
2022-10-05T06:03:35.887Z,10.24
2022-10-05T06:06:12.189Z,10.30
2022-10-05T06:08:48.049Z,10.40
2022-10-05T06:11:41.252Z,10.40
2022-10-05T06:14:28.945Z,10.50
2022-10-05T06:17:10.636Z,10.60
2022-10-05T06:19:38.600Z,10.60
2022-10-05T06:22:30.809Z,10.70
2022-10-05T06:25:12.308Z,10.80
2022-10-05T06:28:08.999Z,10.80
2022-10-05T06:31:13.549Z,10.90
2022-10-05T06:33:48.182Z,11.00
2022-10-05T06:36:43.623Z,11.10
2022-10-05T06:39:44.220Z,11.14
2022-10-05T06:42:25.579Z,11.20
2022-10-05T06:45:30.176Z,11.30
2022-10-05T06:48:50.159Z,11.44
2022-10-05T06:52:16.287Z,11.50
2022-10-05T06:55:27.066Z,11.60
2022-10-05T06:58:07.236Z,11.76
2022-10-05T07:01:05.959Z,11.84
2022-10-05T07:03:47.156Z,12.00
2022-10-05T07:06:54.786Z,12.10
2022-10-05T07:09:44.953Z,12.20
2022-10-05T07:13:18.147Z,12.34
2022-10-05T07:15:56.329Z,12.50
2022-10-05T07:18:55.868Z,12.60
2022-10-05T07:21:59.220Z,12.70
2022-10-05T07:24:57.447Z,12.90
2022-10-05T07:27:27.961Z,13.00
2022-10-05T07:30:13.280Z,13.10
2022-10-05T07:32:53.586Z,13.20
2022-10-05T07:36:04.456Z,13.30
2022-10-05T07:38:37.995Z,13.46
2022-10-05T07:41:37.136Z,13.54
2022-10-05T07:44:17.855Z,13.68
2022-10-05T07:46:59.083Z,13.76
2022-10-05T07:49:47.894Z,13.86
2022-10-05T07:52:34.502Z,14.00
2022-10-05T07:55:33.092Z,14.10
2022-10-05T07:58:22.603Z,14.20
2022-10-05T08:01:05.090Z,14.38
2022-10-05T08:03:49.406Z,14.48
2022-10-05T08:06:37.517Z,14.60
2022-10-05T08:09:32.337Z,14.70
2022-10-05T08:12:24.806Z,14.82
2022-10-05T08:14:56.442Z,15.00
2022-10-05T08:17:37.898Z,15.10
2022-10-05T08:20:46.982Z,15.20
2022-10-05T08:23:32.835Z,15.34
2022-10-05T08:26:35.887Z,15.50
2022-10-05T08:29:32.148Z,15.60
2022-10-05T08:32:03.902Z,15.70
2022-10-05T08:34:47.419Z,15.88
2022-10-05T08:37:26.824Z,16.44
2022-10-05T08:40:00.163Z,17.68
2022-10-05T08:43:10.668Z,19.08
2022-10-05T08:46:06.901Z,20.72
2022-10-05T08:49:01.701Z,22.10
2022-10-05T08:51:53.686Z,23.40
2022-10-05T08:54:44.806Z,24.32
2022-10-05T08:57:51.454Z,25.34
2022-10-05T09:00:22.896Z,26.36
2022-10-05T09:03:04.374Z,27.16
2022-10-05T09:05:57.710Z,27.90
2022-10-05T09:08:57.789Z,28.64
2022-10-05T09:11:45.498Z,29.54
2022-10-05T09:14:39.479Z,30.38
2022-10-05T09:17:21.720Z,31.10
2022-10-05T09:20:10.426Z,31.64
2022-10-05T09:23:30.846Z,32.10
2022-10-05T09:26:06.279Z,32.36
2022-10-05T09:29:04.574Z,32.70
2022-10-05T09:32:10.699Z,32.70
2022-10-05T09:34:54.991Z,33.02
2022-10-05T09:38:01.616Z,33.34
2022-10-05T09:41:11.731Z,33.30
2022-10-05T09:44:35.736Z,33.44
2022-10-05T09:47:08.831Z,33.20
2022-10-05T09:50:16.487Z,33.30
2022-10-05T09:53:09.729Z,33.30
2022-10-05T09:55:53.696Z,33.20
2022-10-05T09:59:05.817Z,33.70
2022-10-05T10:02:15.644Z,34.10
2022-10-05T10:05:19.456Z,34.20
2022-10-05T10:08:04.136Z,34.16
2022-10-05T10:11:04.002Z,34.34
2022-10-05T10:13:38.948Z,34.08
2022-10-05T10:16:26.538Z,33.72
2022-10-05T10:19:23.549Z,33.50
2022-10-05T10:22:54.795Z,33.12
2022-10-05T10:25:53.783Z,31.68
2022-10-05T10:28:53.583Z,31.08
2022-10-05T10:31:53.725Z,30.64
2022-10-05T10:34:49.379Z,30.00
2022-10-05T10:37:52.854Z,29.80
2022-10-05T10:40:49.856Z,29.34
2022-10-05T10:43:35.283Z,28.88
2022-10-05T10:46:23.601Z,28.52
2022-10-05T10:49:15.027Z,28.00
2022-10-05T10:52:25.434Z,27.80
2022-10-05T10:55:23.326Z,27.60
2022-10-05T10:58:34.405Z,27.20
2022-10-05T11:01:26.973Z,27.10
2022-10-05T11:04:20.854Z,27.00
2022-10-05T11:07:37.924Z,27.00
2022-10-05T11:10:37.786Z,26.62
2022-10-05T11:13:35.129Z,26.20
2022-10-05T11:16:29.339Z,26.20
2022-10-05T11:19:04.321Z,26.26
2022-10-05T11:22:46.267Z,26.20
2022-10-05T11:25:40.870Z,26.20
2022-10-05T11:29:03.507Z,26.00
2022-10-05T11:32:07.371Z,25.90
2022-10-05T11:35:15.269Z,25.80
2022-10-05T11:38:28.777Z,25.76
2022-10-05T11:41:27.332Z,25.70
2022-10-05T11:44:12.144Z,25.70
2022-10-05T11:47:02.205Z,25.58
2022-10-05T11:50:40.892Z,25.50
2022-10-05T11:53:24.632Z,25.48
2022-10-05T11:59:42.474Z,25.40
2022-10-05T12:02:32.564Z,25.50
2022-10-05T12:05:23.686Z,25.56
2022-10-05T12:08:05.976Z,25.60
2022-10-05T12:11:30.817Z,25.60
2022-10-05T12:14:12.200Z,25.50
2022-10-05T12:17:04.542Z,25.40
2022-10-05T12:20:03.125Z,25.20
2022-10-05T12:22:46.364Z,25.10
2022-10-05T12:25:24.971Z,25.10
2022-10-05T12:27:56.236Z,25.10
2022-10-05T12:30:48.165Z,25.10
2022-10-05T12:33:32.359Z,25.10
2022-10-05T12:36:23.093Z,25.00
2022-10-05T12:39:04.734Z,25.00
2022-10-05T12:42:11.077Z,24.90
2022-10-05T12:45:16.397Z,25.00
2022-10-05T12:48:11.451Z,24.90
2022-10-05T12:50:56.672Z,25.00
2022-10-05T12:53:56.231Z,25.00
2022-10-05T12:56:58.864Z,25.00
2022-10-05T12:59:46.270Z,25.00
2022-10-05T13:02:41.699Z,25.00
2022-10-05T13:05:10.547Z,24.90
2022-10-05T13:08:20.500Z,24.88
2022-10-05T13:10:58.879Z,24.80
2022-10-05T13:13:27.893Z,24.80
2022-10-05T13:16:14.844Z,24.80
2022-10-05T13:19:03.692Z,24.90
2022-10-05T13:21:51.450Z,24.88
2022-10-05T13:24:30.595Z,24.90
2022-10-05T13:27:21.596Z,24.88
2022-10-05T13:30:14.671Z,24.90
2022-10-05T13:32:47.327Z,25.00
2022-10-05T13:35:42.504Z,25.00
2022-10-05T13:38:24.023Z,25.00
2022-10-05T13:41:43.101Z,25.00
2022-10-05T13:44:18.327Z,25.00
2022-10-05T13:47:11.515Z,24.96
2022-10-05T13:49:54.371Z,24.82
2022-10-05T13:53:09.490Z,24.80
2022-10-05T13:55:45.368Z,24.80
2022-10-05T13:58:49.307Z,24.70
2022-10-05T14:01:35.044Z,24.70
2022-10-05T14:04:20.080Z,24.60
2022-10-05T14:06:48.455Z,24.50
2022-10-05T14:09:20.277Z,24.50
2022-10-05T14:12:11.488Z,24.50
2022-10-05T14:14:50.993Z,24.50
2022-10-05T14:17:41.165Z,24.40
2022-10-05T14:20:36.019Z,24.40
2022-10-05T14:23:17.376Z,24.40
2022-10-05T14:25:53.275Z,24.38
2022-10-05T14:28:38.333Z,24.30
2022-10-05T14:31:35.623Z,24.20
2022-10-05T14:34:41.223Z,24.10
2022-10-05T14:37:24.183Z,23.94
2022-10-05T14:39:54.136Z,23.90
2022-10-05T14:42:24.544Z,23.82
2022-10-05T14:45:17.427Z,23.80
2022-10-05T14:48:10.694Z,23.80
2022-10-05T14:51:01.526Z,23.80
2022-10-05T14:53:38.369Z,23.70
2022-10-05T14:56:43.813Z,23.64
2022-10-05T14:59:31.116Z,23.56
2022-10-05T15:02:44.237Z,23.50
2022-10-05T15:05:45.357Z,23.50
2022-10-05T15:08:11.208Z,23.40
2022-10-05T15:10:45.346Z,23.30
2022-10-05T15:13:31.002Z,23.30
2022-10-05T15:16:14.019Z,23.20
2022-10-05T15:19:01.730Z,23.16
2022-10-05T15:21:42.097Z,23.06
2022-10-05T15:24:19.456Z,23.00
2022-10-05T15:26:53.090Z,22.92
2022-10-05T15:29:49.850Z,22.90
2022-10-05T15:32:43.050Z,22.80
2022-10-05T15:35:09.030Z,22.70
2022-10-05T15:37:44.053Z,22.70
2022-10-05T15:40:32.189Z,22.60
2022-10-05T15:43:03.983Z,22.50
2022-10-05T15:45:42.071Z,22.40
2022-10-05T15:48:21.833Z,22.40
2022-10-05T15:51:27.729Z,22.40
2022-10-05T15:54:33.190Z,22.30
2022-10-05T15:57:14.746Z,22.20
2022-10-05T16:00:01.232Z,22.10
2022-10-05T16:02:51.520Z,22.10
2022-10-05T16:06:11.538Z,22.00
2022-10-05T16:09:08.592Z,21.80
2022-10-05T16:11:37.129Z,21.74
2022-10-05T16:14:59.944Z,21.70
2022-10-05T16:17:50.316Z,21.50
2022-10-05T16:20:46.868Z,21.40
2022-10-05T16:23:39.521Z,21.30
2022-10-05T16:26:38.105Z,21.26
2022-10-05T16:29:41.450Z,21.10
2022-10-05T16:32:37.766Z,21.00
2022-10-05T16:35:24.438Z,20.92
2022-10-05T16:38:40.871Z,20.90
2022-10-05T16:41:42.075Z,20.70
2022-10-05T16:44:20.152Z,20.60
2022-10-05T16:46:53.936Z,20.50
2022-10-05T16:49:46.620Z,20.46
2022-10-05T16:52:18.633Z,20.30
2022-10-05T16:54:52.184Z,20.30
2022-10-05T16:57:56.113Z,20.20
2022-10-05T17:01:12.553Z,20.10
2022-10-05T17:04:11.519Z,20.00
2022-10-05T17:07:04.216Z,19.90
2022-10-05T17:09:49.644Z,19.80
2022-10-05T17:12:34.283Z,19.62
2022-10-05T17:15:28.451Z,19.50
2022-10-05T17:18:27.110Z,19.40
2022-10-05T17:21:13.453Z,19.30
2022-10-05T17:23:53.773Z,19.20
2022-10-05T17:26:22.480Z,19.10
2022-10-05T17:28:51.480Z,19.00
2022-10-05T17:31:21.033Z,18.90
2022-10-05T17:33:59.330Z,18.80
2022-10-05T17:36:42.200Z,18.80
2022-10-05T17:39:43.409Z,18.70
2022-10-05T17:42:33.740Z,18.60
2022-10-05T17:45:13.400Z,18.50
2022-10-05T17:48:03.991Z,18.40
2022-10-05T17:51:04.567Z,18.40
2022-10-05T17:53:52.268Z,18.30
2022-10-05T17:56:21.169Z,18.20
2022-10-05T17:58:46.949Z,18.10
2022-10-05T18:01:16.785Z,18.10
2022-10-05T18:03:50.764Z,18.00
2022-10-05T18:06:31.071Z,18.00
2022-10-05T18:09:21.886Z,17.90
2022-10-05T18:12:15.684Z,17.90
2022-10-05T18:14:58.565Z,17.82
2022-10-05T18:17:49.942Z,17.80
2022-10-05T18:20:28.125Z,17.76
2022-10-05T18:23:23.242Z,17.70
2022-10-05T18:26:03.516Z,17.70
2022-10-05T18:28:56.403Z,17.62
2022-10-05T18:31:33.556Z,17.60
2022-10-05T18:34:26.391Z,17.60
2022-10-05T18:37:07.837Z,17.60
2022-10-05T18:39:55.067Z,17.52
2022-10-05T18:42:48.071Z,17.50
2022-10-05T18:45:37.528Z,17.50
2022-10-05T18:48:51.256Z,17.40
2022-10-05T18:51:49.615Z,17.36
2022-10-05T18:54:37.574Z,17.30
2022-10-05T18:57:41.255Z,17.30
2022-10-05T19:00:17.177Z,17.20
2022-10-05T19:02:49.355Z,17.20
2022-10-05T19:05:47.817Z,17.10
2022-10-05T19:08:42.232Z,17.00
2022-10-05T19:11:27.175Z,16.94
2022-10-05T19:14:09.990Z,16.90
2022-10-05T19:17:06.479Z,16.80
2022-10-05T19:20:17.050Z,16.80
2022-10-05T19:23:08.939Z,16.70
2022-10-05T19:26:02.998Z,16.60
2022-10-05T19:28:36.146Z,16.60
2022-10-05T19:31:11.254Z,16.60
2022-10-05T19:34:15.850Z,16.50
2022-10-05T19:37:13.985Z,16.50
2022-10-05T19:39:57.971Z,16.40
2022-10-05T19:43:13.665Z,16.40
2022-10-05T19:46:17.788Z,16.40
2022-10-05T19:48:49.638Z,16.30
2022-10-05T19:51:24.985Z,16.30
2022-10-05T19:53:55.179Z,16.24
2022-10-05T19:56:30.170Z,16.20
2022-10-05T19:58:58.852Z,16.20
2022-10-05T20:01:43.040Z,16.20
2022-10-05T20:04:09.877Z,16.14
2022-10-05T20:06:38.948Z,16.10
2022-10-05T20:09:20.523Z,16.10
2022-10-05T20:11:51.760Z,16.00
2022-10-05T20:14:21.179Z,16.00
2022-10-05T20:17:05.885Z,15.90
2022-10-05T20:19:50.502Z,15.90
2022-10-05T20:22:34.631Z,15.80
2022-10-05T20:25:05.659Z,15.80
2022-10-05T20:27:41.352Z,15.72
2022-10-05T20:30:11.495Z,15.70
2022-10-05T20:32:37.908Z,15.68
2022-10-05T20:35:06.106Z,15.60
2022-10-05T20:37:32.579Z,15.60
2022-10-05T20:39:59.322Z,15.50
2022-10-05T20:42:26.021Z,15.50
2022-10-05T20:44:56.735Z,15.46
2022-10-05T20:47:24.004Z,15.40
2022-10-05T20:49:50.011Z,15.40
2022-10-05T20:52:15.951Z,15.40
2022-10-05T20:54:42.157Z,15.40
2022-10-05T20:57:09.401Z,15.32
2022-10-05T20:59:36.655Z,15.30
2022-10-05T21:02:03.425Z,15.30
2022-10-05T21:04:40.300Z,15.30
2022-10-05T21:07:07.522Z,15.30
2022-10-05T21:09:33.544Z,15.30
2022-10-05T21:12:00.402Z,15.20
2022-10-05T21:14:29.917Z,15.20
2022-10-05T21:16:55.948Z,15.20
2022-10-05T21:19:21.894Z,15.20
2022-10-05T21:21:48.215Z,15.20
2022-10-05T21:24:14.819Z,15.20
2022-10-05T21:26:42.364Z,15.20
2022-10-05T21:29:12.470Z,15.20
2022-10-05T21:31:40.059Z,15.20
2022-10-05T21:34:06.228Z,15.20
2022-10-05T21:36:32.389Z,15.20
2022-10-05T21:38:59.098Z,15.20
2022-10-05T21:41:25.039Z,15.20
2022-10-05T21:43:51.266Z,15.20
2022-10-05T21:46:21.340Z,15.20
2022-10-05T21:48:48.671Z,15.20
2022-10-05T21:51:18.229Z,15.20
2022-10-05T21:53:54.210Z,15.20
2022-10-05T21:56:23.939Z,15.20
2022-10-05T21:58:51.123Z,15.20
2022-10-05T22:01:22.218Z,15.20
2022-10-05T22:03:48.836Z,15.10
2022-10-05T22:06:14.807Z,15.10
2022-10-05T22:08:40.865Z,15.10
2022-10-05T22:11:15.031Z,15.10
2022-10-05T22:13:45.606Z,15.00
2022-10-05T22:16:13.594Z,15.00
2022-10-05T22:18:40.066Z,15.00
2022-10-05T22:21:10.542Z,15.00
2022-10-05T22:23:36.719Z,14.98
2022-10-05T22:26:03.677Z,14.90
2022-10-05T22:28:32.130Z,14.90
2022-10-05T22:31:03.320Z,14.90
2022-10-05T22:33:29.828Z,14.90
2022-10-05T22:35:57.927Z,14.80
2022-10-05T22:38:23.909Z,14.80
2022-10-05T22:40:49.811Z,14.80
2022-10-05T22:43:15.897Z,14.78
2022-10-05T22:45:41.940Z,14.70
2022-10-05T22:48:07.893Z,14.70
2022-10-05T22:50:34.004Z,14.70
2022-10-05T22:52:59.953Z,14.64
2022-10-05T22:55:25.952Z,14.60
2022-10-05T22:57:52.058Z,14.60
2022-10-05T23:00:18.148Z,14.60
2022-10-05T23:02:44.801Z,14.60
2022-10-05T23:05:16.355Z,14.60
2022-10-05T23:07:46.102Z,14.60
2022-10-05T23:10:17.292Z,14.60
2022-10-05T23:12:44.612Z,14.60
2022-10-05T23:15:11.306Z,14.60
2022-10-05T23:17:38.663Z,14.60
2022-10-05T23:20:07.144Z,14.60
2022-10-05T23:22:37.740Z,14.60
2022-10-05T23:25:06.124Z,14.50
2022-10-05T23:27:40.783Z,14.50
2022-10-05T23:30:09.880Z,14.50
2022-10-05T23:32:43.976Z,14.50
2022-10-05T23:35:12.768Z,14.50
2022-10-05T23:37:41.796Z,14.42
2022-10-05T23:40:11.498Z,14.40
2022-10-05T23:42:39.417Z,14.40
2022-10-05T23:45:07.131Z,14.40
2022-10-05T23:47:33.042Z,14.30
2022-10-05T23:50:00.082Z,14.30
2022-10-05T23:52:26.067Z,14.30
2022-10-05T23:54:52.016Z,14.30
2022-10-05T23:57:18.790Z,14.26
2022-10-05T23:59:45.333Z,14.20
